sensor_id;sensor_type;location;lat;lon;timestamp;P1;durP1;ratioP1;P2;durP2;ratioP2
12784;SDS011;6456;42.680;23.260;2024-01-30T00:02:02;4.87;;;3.70;;
12784;SDS011;6456;42.680;23.260;2024-01-30T00:04:29;4.93;;;3.57;;
12784;SDS011;6456;42.680;23.260;2024-01-30T00:06:56;6.33;;;3.70;;
12784;SDS011;6456;42.680;23.260;2024-01-30T00:09:23;5.27;;;4.00;;
12784;SDS011;6456;42.680;23.260;2024-01-30T00:11:51;4.80;;;4.00;;
12784;SDS011;6456;42.680;23.260;2024-01-30T00:14:18;4.60;;;3.80;;
12784;SDS011;6456;42.680;23.260;2024-01-30T00:16:45;4.70;;;3.80;;
12784;SDS011;6456;42.680;23.260;2024-01-30T00:19:13;4.80;;;3.37;;
12784;SDS011;6456;42.680;23.260;2024-01-30T00:21:40;3.83;;;3.40;;
12784;SDS011;6456;42.680;23.260;2024-01-30T00:24:07;4.03;;;3.10;;
12784;SDS011;6456;42.680;23.260;2024-01-30T00:26:34;3.33;;;3.00;;
12784;SDS011;6456;42.680;23.260;2024-01-30T00:29:01;5.73;;;3.93;;
12784;SDS011;6456;42.680;23.260;2024-01-30T00:31:28;5.67;;;3.90;;
12784;SDS011;6456;42.680;23.260;2024-01-30T00:33:57;6.77;;;4.63;;
12784;SDS011;6456;42.680;23.260;2024-01-30T00:36:25;7.73;;;5.40;;
12784;SDS011;6456;42.680;23.260;2024-01-30T00:38:55;9.40;;;5.37;;
12784;SDS011;6456;42.680;23.260;2024-01-30T00:41:22;7.73;;;5.40;;
12784;SDS011;6456;42.680;23.260;2024-01-30T00:43:49;8.50;;;5.57;;
12784;SDS011;6456;42.680;23.260;2024-01-30T00:46:16;7.43;;;5.57;;
12784;SDS011;6456;42.680;23.260;2024-01-30T00:48:43;8.60;;;5.57;;
12784;SDS011;6456;42.680;23.260;2024-01-30T00:51:10;7.97;;;5.50;;
12784;SDS011;6456;42.680;23.260;2024-01-30T00:53:39;6.87;;;4.70;;
12784;SDS011;6456;42.680;23.260;2024-01-30T00:56:06;7.23;;;4.90;;
12784;SDS011;6456;42.680;23.260;2024-01-30T00:58:34;6.83;;;4.53;;
12784;SDS011;6456;42.680;23.260;2024-01-30T01:01:01;6.50;;;4.87;;
12784;SDS011;6456;42.680;23.260;2024-01-30T01:03:28;6.57;;;4.93;;
12784;SDS011;6456;42.680;23.260;2024-01-30T01:05:55;6.00;;;4.40;;
12784;SDS011;6456;42.680;23.260;2024-01-30T01:08:22;5.90;;;4.50;;
12784;SDS011;6456;42.680;23.260;2024-01-30T01:10:50;6.43;;;4.70;;
12784;SDS011;6456;42.680;23.260;2024-01-30T01:13:17;6.73;;;4.97;;
12784;SDS011;6456;42.680;23.260;2024-01-30T01:15:45;6.60;;;4.80;;
12784;SDS011;6456;42.680;23.260;2024-01-30T01:18:12;6.17;;;4.57;;
12784;SDS011;6456;42.680;23.260;2024-01-30T01:20:39;7.50;;;5.00;;
12784;SDS011;6456;42.680;23.260;2024-01-30T01:23:06;7.00;;;4.77;;
12784;SDS011;6456;42.680;23.260;2024-01-30T01:25:34;6.70;;;4.70;;
12784;SDS011;6456;42.680;23.260;2024-01-30T01:28:02;6.60;;;4.70;;
12784;SDS011;6456;42.680;23.260;2024-01-30T01:30:30;6.33;;;4.90;;
12784;SDS011;6456;42.680;23.260;2024-01-30T01:32:57;7.13;;;4.70;;
12784;SDS011;6456;42.680;23.260;2024-01-30T01:35:27;6.33;;;4.37;;
12784;SDS011;6456;42.680;23.260;2024-01-30T01:37:54;6.33;;;4.47;;
12784;SDS011;6456;42.680;23.260;2024-01-30T01:40:23;7.00;;;4.70;;
12784;SDS011;6456;42.680;23.260;2024-01-30T01:42:50;6.80;;;4.43;;
12784;SDS011;6456;42.680;23.260;2024-01-30T01:45:19;8.00;;;5.00;;
12784;SDS011;6456;42.680;23.260;2024-01-30T01:47:49;4.83;;;4.20;;
12784;SDS011;6456;42.680;23.260;2024-01-30T01:50:17;7.33;;;4.80;;
12784;SDS011;6456;42.680;23.260;2024-01-30T01:52:47;5.80;;;4.47;;
12784;SDS011;6456;42.680;23.260;2024-01-30T01:55:15;6.87;;;4.43;;
12784;SDS011;6456;42.680;23.260;2024-01-30T01:57:42;5.27;;;4.33;;
12784;SDS011;6456;42.680;23.260;2024-01-30T02:00:10;4.33;;;3.50;;
12784;SDS011;6456;42.680;23.260;2024-01-30T02:02:41;5.57;;;3.85;;
12784;SDS011;6456;42.680;23.260;2024-01-30T02:05:10;4.97;;;3.87;;
12784;SDS011;6456;42.680;23.260;2024-01-30T02:07:37;4.07;;;3.60;;
12784;SDS011;6456;42.680;23.260;2024-01-30T02:10:05;5.33;;;3.80;;
12784;SDS011;6456;42.680;23.260;2024-01-30T02:12:35;5.60;;;3.80;;
12784;SDS011;6456;42.680;23.260;2024-01-30T02:15:02;4.00;;;3.40;;
12784;SDS011;6456;42.680;23.260;2024-01-30T02:17:30;4.87;;;3.37;;
12784;SDS011;6456;42.680;23.260;2024-01-30T02:19:59;4.93;;;3.37;;
12784;SDS011;6456;42.680;23.260;2024-01-30T02:22:28;4.73;;;3.50;;
12784;SDS011;6456;42.680;23.260;2024-01-30T02:24:55;3.40;;;3.10;;
12784;SDS011;6456;42.680;23.260;2024-01-30T02:27:22;8.27;;;4.97;;
12784;SDS011;6456;42.680;23.260;2024-01-30T02:29:49;3.87;;;3.03;;
12784;SDS011;6456;42.680;23.260;2024-01-30T02:32:16;4.57;;;3.47;;
12784;SDS011;6456;42.680;23.260;2024-01-30T02:34:43;3.20;;;2.67;;
12784;SDS011;6456;42.680;23.260;2024-01-30T02:37:11;4.00;;;2.87;;
12784;SDS011;6456;42.680;23.260;2024-01-30T02:39:39;3.77;;;3.27;;
12784;SDS011;6456;42.680;23.260;2024-01-30T02:42:06;4.80;;;3.20;;
12784;SDS011;6456;42.680;23.260;2024-01-30T02:44:33;3.70;;;2.80;;
12784;SDS011;6456;42.680;23.260;2024-01-30T02:47:01;3.43;;;2.83;;
12784;SDS011;6456;42.680;23.260;2024-01-30T02:49:28;4.07;;;3.17;;
12784;SDS011;6456;42.680;23.260;2024-01-30T02:51:55;3.67;;;3.00;;
12784;SDS011;6456;42.680;23.260;2024-01-30T02:54:22;3.20;;;2.60;;
12784;SDS011;6456;42.680;23.260;2024-01-30T02:56:51;4.13;;;3.17;;
12784;SDS011;6456;42.680;23.260;2024-01-30T02:59:18;3.60;;;2.60;;
12784;SDS011;6456;42.680;23.260;2024-01-30T03:01:45;3.93;;;2.63;;
12784;SDS011;6456;42.680;23.260;2024-01-30T03:04:13;3.83;;;3.03;;
12784;SDS011;6456;42.680;23.260;2024-01-30T03:06:44;3.77;;;2.70;;
12784;SDS011;6456;42.680;23.260;2024-01-30T03:09:12;4.17;;;3.10;;
12784;SDS011;6456;42.680;23.260;2024-01-30T03:11:39;5.20;;;2.73;;
12784;SDS011;6456;42.680;23.260;2024-01-30T03:14:08;3.07;;;2.77;;
12784;SDS011;6456;42.680;23.260;2024-01-30T03:16:36;3.57;;;2.90;;
12784;SDS011;6456;42.680;23.260;2024-01-30T03:19:03;4.27;;;3.10;;
12784;SDS011;6456;42.680;23.260;2024-01-30T03:21:32;4.37;;;2.97;;
12784;SDS011;6456;42.680;23.260;2024-01-30T03:24:00;3.77;;;3.37;;
12784;SDS011;6456;42.680;23.260;2024-01-30T03:26:27;3.60;;;2.83;;
12784;SDS011;6456;42.680;23.260;2024-01-30T03:28:54;2.80;;;2.50;;
12784;SDS011;6456;42.680;23.260;2024-01-30T03:31:23;3.97;;;2.90;;
12784;SDS011;6456;42.680;23.260;2024-01-30T03:33:50;3.83;;;2.97;;
12784;SDS011;6456;42.680;23.260;2024-01-30T03:36:17;3.50;;;3.00;;
12784;SDS011;6456;42.680;23.260;2024-01-30T03:38:44;3.60;;;2.97;;
12784;SDS011;6456;42.680;23.260;2024-01-30T03:41:11;4.27;;;3.30;;
12784;SDS011;6456;42.680;23.260;2024-01-30T03:43:39;3.53;;;3.13;;
12784;SDS011;6456;42.680;23.260;2024-01-30T03:46:06;4.07;;;2.90;;
12784;SDS011;6456;42.680;23.260;2024-01-30T03:48:35;4.57;;;2.87;;
12784;SDS011;6456;42.680;23.260;2024-01-30T03:51:03;3.47;;;2.83;;
12784;SDS011;6456;42.680;23.260;2024-01-30T03:53:30;3.63;;;2.80;;
12784;SDS011;6456;42.680;23.260;2024-01-30T03:55:57;3.03;;;2.70;;
12784;SDS011;6456;42.680;23.260;2024-01-30T03:58:24;3.70;;;3.00;;
12784;SDS011;6456;42.680;23.260;2024-01-30T04:00:52;3.53;;;2.90;;
12784;SDS011;6456;42.680;23.260;2024-01-30T04:03:19;3.70;;;3.00;;
12784;SDS011;6456;42.680;23.260;2024-01-30T04:05:47;3.90;;;2.90;;
12784;SDS011;6456;42.680;23.260;2024-01-30T04:08:14;5.37;;;3.20;;
12784;SDS011;6456;42.680;23.260;2024-01-30T04:10:41;4.53;;;3.70;;
12784;SDS011;6456;42.680;23.260;2024-01-30T04:13:08;3.27;;;2.77;;
12784;SDS011;6456;42.680;23.260;2024-01-30T04:15:35;3.40;;;2.80;;
12784;SDS011;6456;42.680;23.260;2024-01-30T04:18:03;2.93;;;2.60;;
12784;SDS011;6456;42.680;23.260;2024-01-30T04:20:30;3.17;;;2.30;;
12784;SDS011;6456;42.680;23.260;2024-01-30T04:22:58;3.40;;;2.80;;
12784;SDS011;6456;42.680;23.260;2024-01-30T04:25:26;3.60;;;2.87;;
12784;SDS011;6456;42.680;23.260;2024-01-30T04:27:53;4.30;;;3.07;;
12784;SDS011;6456;42.680;23.260;2024-01-30T04:30:20;3.23;;;2.73;;
12784;SDS011;6456;42.680;23.260;2024-01-30T04:32:47;2.90;;;2.60;;
12784;SDS011;6456;42.680;23.260;2024-01-30T04:35:14;3.33;;;2.90;;
12784;SDS011;6456;42.680;23.260;2024-01-30T04:37:42;3.23;;;2.73;;
12784;SDS011;6456;42.680;23.260;2024-01-30T04:40:10;3.67;;;2.80;;
12784;SDS011;6456;42.680;23.260;2024-01-30T04:42:38;4.10;;;2.90;;
12784;SDS011;6456;42.680;23.260;2024-01-30T04:45:05;6.07;;;2.90;;
12784;SDS011;6456;42.680;23.260;2024-01-30T04:47:33;2.43;;;2.20;;
12784;SDS011;6456;42.680;23.260;2024-01-30T04:50:00;4.73;;;3.17;;
12784;SDS011;6456;42.680;23.260;2024-01-30T04:52:30;2.37;;;2.07;;
12784;SDS011;6456;42.680;23.260;2024-01-30T04:54:57;2.60;;;2.20;;
12784;SDS011;6456;42.680;23.260;2024-01-30T04:57:25;3.80;;;2.70;;
12784;SDS011;6456;42.680;23.260;2024-01-30T04:59:52;4.93;;;2.47;;
12784;SDS011;6456;42.680;23.260;2024-01-30T05:02:20;3.27;;;2.37;;
12784;SDS011;6456;42.680;23.260;2024-01-30T05:04:47;6.20;;;2.70;;
12784;SDS011;6456;42.680;23.260;2024-01-30T05:07:14;8.57;;;3.47;;
12784;SDS011;6456;42.680;23.260;2024-01-30T05:09:41;6.63;;;4.13;;
12784;SDS011;6456;42.680;23.260;2024-01-30T05:12:08;6.00;;;3.83;;
12784;SDS011;6456;42.680;23.260;2024-01-30T05:14:37;4.83;;;3.53;;
12784;SDS011;6456;42.680;23.260;2024-01-30T05:17:04;5.13;;;3.40;;
12784;SDS011;6456;42.680;23.260;2024-01-30T05:19:42;5.53;;;3.87;;
12784;SDS011;6456;42.680;23.260;2024-01-30T05:22:27;4.20;;;3.20;;
12784;SDS011;6456;42.680;23.260;2024-01-30T05:24:54;5.37;;;3.50;;
12784;SDS011;6456;42.680;23.260;2024-01-30T05:27:21;5.87;;;3.03;;
12784;SDS011;6456;42.680;23.260;2024-01-30T05:29:49;7.27;;;4.13;;
12784;SDS011;6456;42.680;23.260;2024-01-30T05:32:16;8.93;;;4.97;;
12784;SDS011;6456;42.680;23.260;2024-01-30T05:34:44;9.00;;;5.10;;
12784;SDS011;6456;42.680;23.260;2024-01-30T05:37:11;12.60;;;4.70;;
12784;SDS011;6456;42.680;23.260;2024-01-30T05:39:42;7.23;;;3.00;;
12784;SDS011;6456;42.680;23.260;2024-01-30T05:42:11;6.60;;;3.40;;
12784;SDS011;6456;42.680;23.260;2024-01-30T05:44:38;5.27;;;3.53;;
12784;SDS011;6456;42.680;23.260;2024-01-30T05:47:06;6.90;;;4.00;;
12784;SDS011;6456;42.680;23.260;2024-01-30T05:49:33;8.83;;;4.10;;
12784;SDS011;6456;42.680;23.260;2024-01-30T05:52:02;9.10;;;3.80;;
12784;SDS011;6456;42.680;23.260;2024-01-30T05:54:30;8.00;;;4.37;;
12784;SDS011;6456;42.680;23.260;2024-01-30T05:56:57;4.73;;;3.50;;
12784;SDS011;6456;42.680;23.260;2024-01-30T05:59:25;6.90;;;4.20;;
12784;SDS011;6456;42.680;23.260;2024-01-30T06:01:52;12.47;;;4.47;;
12784;SDS011;6456;42.680;23.260;2024-01-30T06:04:20;14.90;;;4.70;;
12784;SDS011;6456;42.680;23.260;2024-01-30T06:06:47;13.50;;;5.37;;
12784;SDS011;6456;42.680;23.260;2024-01-30T06:09:14;11.03;;;6.10;;
12784;SDS011;6456;42.680;23.260;2024-01-30T06:11:41;16.00;;;8.07;;
12784;SDS011;6456;42.680;23.260;2024-01-30T06:14:08;19.93;;;8.37;;
12784;SDS011;6456;42.680;23.260;2024-01-30T06:16:35;13.60;;;7.03;;
12784;SDS011;6456;42.680;23.260;2024-01-30T06:19:02;8.03;;;4.20;;
12784;SDS011;6456;42.680;23.260;2024-01-30T06:21:30;10.60;;;4.77;;
12784;SDS011;6456;42.680;23.260;2024-01-30T06:24:01;7.90;;;4.27;;
12784;SDS011;6456;42.680;23.260;2024-01-30T06:26:28;10.60;;;4.63;;
12784;SDS011;6456;42.680;23.260;2024-01-30T06:28:55;9.93;;;4.47;;
12784;SDS011;6456;42.680;23.260;2024-01-30T06:31:22;7.23;;;3.70;;
12784;SDS011;6456;42.680;23.260;2024-01-30T06:33:49;7.83;;;3.93;;
12784;SDS011;6456;42.680;23.260;2024-01-30T06:36:17;3.90;;;3.50;;
12784;SDS011;6456;42.680;23.260;2024-01-30T06:38:45;5.87;;;3.63;;
12784;SDS011;6456;42.680;23.260;2024-01-30T06:41:12;4.40;;;3.10;;
12784;SDS011;6456;42.680;23.260;2024-01-30T06:43:39;11.30;;;3.37;;
12784;SDS011;6456;42.680;23.260;2024-01-30T06:46:06;8.83;;;4.10;;
12784;SDS011;6456;42.680;23.260;2024-01-30T06:48:33;10.30;;;4.00;;
12784;SDS011;6456;42.680;23.260;2024-01-30T06:51:00;3.50;;;2.90;;
12784;SDS011;6456;42.680;23.260;2024-01-30T06:53:27;5.60;;;2.83;;
12784;SDS011;6456;42.680;23.260;2024-01-30T06:55:55;6.77;;;3.20;;
12784;SDS011;6456;42.680;23.260;2024-01-30T06:58:22;7.60;;;3.03;;
12784;SDS011;6456;42.680;23.260;2024-01-30T07:00:50;6.47;;;3.00;;
12784;SDS011;6456;42.680;23.260;2024-01-30T07:03:17;5.87;;;2.83;;
12784;SDS011;6456;42.680;23.260;2024-01-30T07:05:44;6.97;;;3.30;;
12784;SDS011;6456;42.680;23.260;2024-01-30T07:08:11;11.70;;;3.60;;
12784;SDS011;6456;42.680;23.260;2024-01-30T07:10:38;4.67;;;3.30;;
12784;SDS011;6456;42.680;23.260;2024-01-30T07:13:07;4.47;;;2.90;;
12784;SDS011;6456;42.680;23.260;2024-01-30T07:15:35;4.87;;;2.70;;
12784;SDS011;6456;42.680;23.260;2024-01-30T07:18:03;8.70;;;3.20;;
12784;SDS011;6456;42.680;23.260;2024-01-30T07:20:30;4.70;;;2.33;;
12784;SDS011;6456;42.680;23.260;2024-01-30T07:22:58;3.03;;;2.07;;
12784;SDS011;6456;42.680;23.260;2024-01-30T07:25:25;2.60;;;2.27;;
12784;SDS011;6456;42.680;23.260;2024-01-30T07:27:54;8.47;;;2.63;;
12784;SDS011;6456;42.680;23.260;2024-01-30T07:30:22;4.20;;;2.70;;
12784;SDS011;6456;42.680;23.260;2024-01-30T07:32:49;5.97;;;3.23;;
12784;SDS011;6456;42.680;23.260;2024-01-30T07:35:16;7.87;;;2.80;;
12784;SDS011;6456;42.680;23.260;2024-01-30T07:37:43;9.47;;;3.30;;
12784;SDS011;6456;42.680;23.260;2024-01-30T07:40:10;5.47;;;3.47;;
12784;SDS011;6456;42.680;23.260;2024-01-30T07:42:37;3.93;;;2.40;;
12784;SDS011;6456;42.680;23.260;2024-01-30T07:45:05;13.27;;;3.07;;
12784;SDS011;6456;42.680;23.260;2024-01-30T07:47:33;3.93;;;2.40;;
12784;SDS011;6456;42.680;23.260;2024-01-30T07:50:01;14.33;;;3.03;;
12784;SDS011;6456;42.680;23.260;2024-01-30T07:52:28;2.37;;;2.17;;
12784;SDS011;6456;42.680;23.260;2024-01-30T07:54:55;3.33;;;2.40;;
12784;SDS011;6456;42.680;23.260;2024-01-30T07:57:22;8.43;;;2.70;;
12784;SDS011;6456;42.680;23.260;2024-01-30T07:59:49;11.67;;;3.27;;
12784;SDS011;6456;42.680;23.260;2024-01-30T08:02:16;6.50;;;3.00;;
12784;SDS011;6456;42.680;23.260;2024-01-30T08:04:45;3.27;;;2.60;;
12784;SDS011;6456;42.680;23.260;2024-01-30T08:07:14;3.37;;;2.73;;
12784;SDS011;6456;42.680;23.260;2024-01-30T08:09:42;5.53;;;3.40;;
12784;SDS011;6456;42.680;23.260;2024-01-30T08:12:09;5.83;;;3.20;;
12784;SDS011;6456;42.680;23.260;2024-01-30T08:14:38;4.30;;;3.10;;
12784;SDS011;6456;42.680;23.260;2024-01-30T08:17:06;3.50;;;2.80;;
12784;SDS011;6456;42.680;23.260;2024-01-30T08:19:33;10.07;;;3.40;;
12784;SDS011;6456;42.680;23.260;2024-01-30T08:22:02;8.80;;;3.00;;
12784;SDS011;6456;42.680;23.260;2024-01-30T08:24:29;11.00;;;3.40;;
12784;SDS011;6456;42.680;23.260;2024-01-30T08:26:56;6.07;;;3.00;;
12784;SDS011;6456;42.680;23.260;2024-01-30T08:29:26;14.33;;;3.77;;
12784;SDS011;6456;42.680;23.260;2024-01-30T08:31:53;5.23;;;3.27;;
12784;SDS011;6456;42.680;23.260;2024-01-30T08:34:21;4.20;;;2.83;;
12784;SDS011;6456;42.680;23.260;2024-01-30T08:36:48;3.73;;;2.97;;
12784;SDS011;6456;42.680;23.260;2024-01-30T08:39:16;4.80;;;3.20;;
12784;SDS011;6456;42.680;23.260;2024-01-30T08:41:43;5.93;;;3.80;;
12784;SDS011;6456;42.680;23.260;2024-01-30T08:44:10;4.23;;;3.27;;
12784;SDS011;6456;42.680;23.260;2024-01-30T08:46:37;4.23;;;3.00;;
12784;SDS011;6456;42.680;23.260;2024-01-30T08:49:04;4.60;;;2.50;;
12784;SDS011;6456;42.680;23.260;2024-01-30T08:51:31;4.67;;;2.90;;
12784;SDS011;6456;42.680;23.260;2024-01-30T08:53:59;4.43;;;3.00;;
12784;SDS011;6456;42.680;23.260;2024-01-30T08:56:27;4.57;;;3.10;;
12784;SDS011;6456;42.680;23.260;2024-01-30T08:58:54;7.10;;;3.33;;
12784;SDS011;6456;42.680;23.260;2024-01-30T09:01:22;18.37;;;5.17;;
12784;SDS011;6456;42.680;23.260;2024-01-30T09:03:49;6.47;;;3.50;;
12784;SDS011;6456;42.680;23.260;2024-01-30T09:06:16;9.30;;;3.70;;
12784;SDS011;6456;42.680;23.260;2024-01-30T09:08:43;8.77;;;3.20;;
12784;SDS011;6456;42.680;23.260;2024-01-30T09:11:11;4.30;;;3.60;;
12784;SDS011;6456;42.680;23.260;2024-01-30T09:13:40;4.23;;;3.40;;
12784;SDS011;6456;42.680;23.260;2024-01-30T09:16:08;5.43;;;3.47;;
12784;SDS011;6456;42.680;23.260;2024-01-30T09:18:35;4.37;;;3.07;;
12784;SDS011;6456;42.680;23.260;2024-01-30T09:21:02;8.93;;;3.30;;
12784;SDS011;6456;42.680;23.260;2024-01-30T09:23:30;4.27;;;2.80;;
12784;SDS011;6456;42.680;23.260;2024-01-30T09:26:00;3.97;;;3.20;;
12784;SDS011;6456;42.680;23.260;2024-01-30T09:28:27;5.70;;;2.93;;
12784;SDS011;6456;42.680;23.260;2024-01-30T09:30:55;4.50;;;3.50;;
12784;SDS011;6456;42.680;23.260;2024-01-30T09:33:23;6.97;;;4.23;;
12784;SDS011;6456;42.680;23.260;2024-01-30T09:35:50;6.83;;;3.97;;
12784;SDS011;6456;42.680;23.260;2024-01-30T09:38:17;6.10;;;3.93;;
12784;SDS011;6456;42.680;23.260;2024-01-30T09:40:44;7.93;;;4.00;;
12784;SDS011;6456;42.680;23.260;2024-01-30T09:43:16;5.03;;;3.53;;
12784;SDS011;6456;42.680;23.260;2024-01-30T09:45:49;4.20;;;3.13;;
12784;SDS011;6456;42.680;23.260;2024-01-30T09:48:18;5.40;;;3.30;;
12784;SDS011;6456;42.680;23.260;2024-01-30T09:50:46;3.37;;;2.87;;
12784;SDS011;6456;42.680;23.260;2024-01-30T09:53:13;5.00;;;3.17;;
12784;SDS011;6456;42.680;23.260;2024-01-30T09:55:42;3.97;;;2.97;;
12784;SDS011;6456;42.680;23.260;2024-01-30T09:58:09;5.40;;;4.00;;
12784;SDS011;6456;42.680;23.260;2024-01-30T10:00:38;2.93;;;2.40;;
12784;SDS011;6456;42.680;23.260;2024-01-30T10:03:05;2.63;;;2.40;;
12784;SDS011;6456;42.680;23.260;2024-01-30T10:05:33;3.37;;;2.60;;
12784;SDS011;6456;42.680;23.260;2024-01-30T10:08:05;3.40;;;2.70;;
12784;SDS011;6456;42.680;23.260;2024-01-30T10:10:33;4.43;;;3.00;;
12784;SDS011;6456;42.680;23.260;2024-01-30T10:13:01;2.93;;;2.63;;
12784;SDS011;6456;42.680;23.260;2024-01-30T10:15:28;4.20;;;2.93;;
12784;SDS011;6456;42.680;23.260;2024-01-30T10:17:55;4.23;;;2.83;;
12784;SDS011;6456;42.680;23.260;2024-01-30T10:20:45;14.03;;;3.70;;
12784;SDS011;6456;42.680;23.260;2024-01-30T10:23:12;4.20;;;2.53;;
12784;SDS011;6456;42.680;23.260;2024-01-30T10:25:39;17.77;;;4.43;;
12784;SDS011;6456;42.680;23.260;2024-01-30T10:28:07;4.07;;;2.60;;
12784;SDS011;6456;42.680;23.260;2024-01-30T10:30:34;3.77;;;2.70;;
12784;SDS011;6456;42.680;23.260;2024-01-30T10:33:01;3.00;;;2.30;;
12784;SDS011;6456;42.680;23.260;2024-01-30T10:35:30;4.17;;;2.70;;
12784;SDS011;6456;42.680;23.260;2024-01-30T10:38:00;3.20;;;2.47;;
12784;SDS011;6456;42.680;23.260;2024-01-30T10:40:33;3.50;;;2.70;;
12784;SDS011;6456;42.680;23.260;2024-01-30T10:43:01;5.93;;;2.90;;
12784;SDS011;6456;42.680;23.260;2024-01-30T10:45:28;3.80;;;2.53;;
12784;SDS011;6456;42.680;23.260;2024-01-30T10:47:56;3.00;;;2.60;;
12784;SDS011;6456;42.680;23.260;2024-01-30T10:50:26;2.60;;;2.40;;
12784;SDS011;6456;42.680;23.260;2024-01-30T10:52:54;4.10;;;2.70;;
12784;SDS011;6456;42.680;23.260;2024-01-30T10:55:25;3.00;;;2.70;;
12784;SDS011;6456;42.680;23.260;2024-01-30T10:57:55;3.03;;;2.70;;
12784;SDS011;6456;42.680;23.260;2024-01-30T11:00:24;3.97;;;3.03;;
12784;SDS011;6456;42.680;23.260;2024-01-30T11:02:52;8.90;;;3.33;;
12784;SDS011;6456;42.680;23.260;2024-01-30T11:05:24;5.97;;;3.53;;
12784;SDS011;6456;42.680;23.260;2024-01-30T11:07:52;3.20;;;2.50;;
12784;SDS011;6456;42.680;23.260;2024-01-30T11:10:19;6.03;;;2.70;;
12784;SDS011;6456;42.680;23.260;2024-01-30T11:12:48;5.63;;;2.70;;
12784;SDS011;6456;42.680;23.260;2024-01-30T11:15:16;3.23;;;2.50;;
12784;SDS011;6456;42.680;23.260;2024-01-30T11:17:44;3.23;;;2.80;;
12784;SDS011;6456;42.680;23.260;2024-01-30T11:20:16;6.40;;;2.77;;
12784;SDS011;6456;42.680;23.260;2024-01-30T11:22:46;4.43;;;2.60;;
12784;SDS011;6456;42.680;23.260;2024-01-30T11:25:15;2.40;;;2.20;;
12784;SDS011;6456;42.680;23.260;2024-01-30T11:27:43;3.10;;;2.60;;
12784;SDS011;6456;42.680;23.260;2024-01-30T11:30:22;4.97;;;2.30;;
12784;SDS011;6456;42.680;23.260;2024-01-30T11:32:59;9.47;;;3.00;;
12784;SDS011;6456;42.680;23.260;2024-01-30T11:35:27;2.50;;;2.30;;
12784;SDS011;6456;42.680;23.260;2024-01-30T11:37:57;4.90;;;2.97;;
12784;SDS011;6456;42.680;23.260;2024-01-30T11:40:27;3.10;;;2.73;;
12784;SDS011;6456;42.680;23.260;2024-01-30T11:42:55;3.20;;;2.67;;
12784;SDS011;6456;42.680;23.260;2024-01-30T11:45:24;5.73;;;2.87;;
12784;SDS011;6456;42.680;23.260;2024-01-30T11:47:51;6.87;;;2.83;;
12784;SDS011;6456;42.680;23.260;2024-01-30T11:50:18;4.93;;;2.70;;
12784;SDS011;6456;42.680;23.260;2024-01-30T11:52:46;3.27;;;2.53;;
12784;SDS011;6456;42.680;23.260;2024-01-30T11:55:14;6.70;;;2.97;;
12784;SDS011;6456;42.680;23.260;2024-01-30T11:57:41;3.50;;;2.90;;
12784;SDS011;6456;42.680;23.260;2024-01-30T12:00:14;3.33;;;2.83;;
12784;SDS011;6456;42.680;23.260;2024-01-30T12:02:43;5.33;;;3.43;;
12784;SDS011;6456;42.680;23.260;2024-01-30T12:05:13;5.13;;;2.80;;
12784;SDS011;6456;42.680;23.260;2024-01-30T12:07:40;6.63;;;2.83;;
12784;SDS011;6456;42.680;23.260;2024-01-30T12:10:11;3.50;;;2.87;;
12784;SDS011;6456;42.680;23.260;2024-01-30T12:12:39;4.07;;;3.17;;
12784;SDS011;6456;42.680;23.260;2024-01-30T12:15:08;6.80;;;2.80;;
12784;SDS011;6456;42.680;23.260;2024-01-30T12:17:35;3.80;;;3.00;;
12784;SDS011;6456;42.680;23.260;2024-01-30T12:20:04;4.23;;;3.20;;
12784;SDS011;6456;42.680;23.260;2024-01-30T12:22:33;4.07;;;2.90;;
12784;SDS011;6456;42.680;23.260;2024-01-30T12:25:04;3.90;;;2.90;;
12784;SDS011;6456;42.680;23.260;2024-01-30T12:27:34;3.37;;;2.70;;
12784;SDS011;6456;42.680;23.260;2024-01-30T12:30:01;2.77;;;2.40;;
12784;SDS011;6456;42.680;23.260;2024-01-30T12:32:34;6.50;;;3.27;;
12784;SDS011;6456;42.680;23.260;2024-01-30T12:35:04;4.63;;;3.20;;
12784;SDS011;6456;42.680;23.260;2024-01-30T12:37:35;4.93;;;2.97;;
12784;SDS011;6456;42.680;23.260;2024-01-30T12:40:02;6.07;;;3.70;;
12784;SDS011;6456;42.680;23.260;2024-01-30T12:42:31;4.73;;;3.23;;
12784;SDS011;6456;42.680;23.260;2024-01-30T12:44:58;5.23;;;3.10;;
12784;SDS011;6456;42.680;23.260;2024-01-30T12:47:26;3.90;;;3.20;;
12784;SDS011;6456;42.680;23.260;2024-01-30T12:50:01;3.63;;;3.10;;
12784;SDS011;6456;42.680;23.260;2024-01-30T12:52:32;4.20;;;3.03;;
12784;SDS011;6456;42.680;23.260;2024-01-30T12:55:04;5.47;;;3.40;;
12784;SDS011;6456;42.680;23.260;2024-01-30T12:57:32;4.37;;;3.00;;
12784;SDS011;6456;42.680;23.260;2024-01-30T13:00:03;6.83;;;3.30;;
12784;SDS011;6456;42.680;23.260;2024-01-30T13:02:40;5.80;;;2.83;;
12784;SDS011;6456;42.680;23.260;2024-01-30T13:05:14;6.63;;;3.40;;
12784;SDS011;6456;42.680;23.260;2024-01-30T13:07:44;7.70;;;5.77;;
12784;SDS011;6456;42.680;23.260;2024-01-30T13:10:11;7.97;;;4.23;;
12784;SDS011;6456;42.680;23.260;2024-01-30T13:12:38;4.50;;;3.50;;
12784;SDS011;6456;42.680;23.260;2024-01-30T13:15:08;4.87;;;3.60;;
12784;SDS011;6456;42.680;23.260;2024-01-30T13:17:36;6.27;;;3.10;;
12784;SDS011;6456;42.680;23.260;2024-01-30T13:20:04;3.93;;;3.20;;
12784;SDS011;6456;42.680;23.260;2024-01-30T13:22:35;4.93;;;3.60;;
12784;SDS011;6456;42.680;23.260;2024-01-30T13:25:04;4.57;;;3.37;;
12784;SDS011;6456;42.680;23.260;2024-01-30T13:27:32;6.90;;;3.13;;
12784;SDS011;6456;42.680;23.260;2024-01-30T13:29:59;4.43;;;3.23;;
12784;SDS011;6456;42.680;23.260;2024-01-30T13:32:29;6.13;;;3.77;;
12784;SDS011;6456;42.680;23.260;2024-01-30T13:35:00;3.60;;;3.00;;
12784;SDS011;6456;42.680;23.260;2024-01-30T13:37:27;5.70;;;3.30;;
12784;SDS011;6456;42.680;23.260;2024-01-30T13:40:02;4.30;;;3.27;;
12784;SDS011;6456;42.680;23.260;2024-01-30T13:42:32;4.20;;;3.40;;
12784;SDS011;6456;42.680;23.260;2024-01-30T13:44:59;5.47;;;3.70;;
12784;SDS011;6456;42.680;23.260;2024-01-30T13:47:27;11.23;;;5.63;;
12784;SDS011;6456;42.680;23.260;2024-01-30T13:49:54;4.67;;;3.27;;
12784;SDS011;6456;42.680;23.260;2024-01-30T13:52:22;4.07;;;3.03;;
12784;SDS011;6456;42.680;23.260;2024-01-30T13:54:49;6.33;;;3.33;;
12784;SDS011;6456;42.680;23.260;2024-01-30T13:57:18;4.37;;;3.20;;
12784;SDS011;6456;42.680;23.260;2024-01-30T13:59:45;4.03;;;3.10;;
12784;SDS011;6456;42.680;23.260;2024-01-30T14:02:12;6.87;;;4.27;;
12784;SDS011;6456;42.680;23.260;2024-01-30T14:04:39;7.10;;;3.83;;
12784;SDS011;6456;42.680;23.260;2024-01-30T14:07:06;8.20;;;3.63;;
12784;SDS011;6456;42.680;23.260;2024-01-30T14:09:33;4.50;;;3.60;;
12784;SDS011;6456;42.680;23.260;2024-01-30T14:12:00;6.60;;;3.50;;
12784;SDS011;6456;42.680;23.260;2024-01-30T14:14:28;4.83;;;3.33;;
12784;SDS011;6456;42.680;23.260;2024-01-30T14:16:55;8.07;;;3.30;;
12784;SDS011;6456;42.680;23.260;2024-01-30T14:19:22;4.87;;;4.00;;
12784;SDS011;6456;42.680;23.260;2024-01-30T14:21:49;4.03;;;3.63;;
12784;SDS011;6456;42.680;23.260;2024-01-30T14:24:16;4.17;;;3.70;;
12784;SDS011;6456;42.680;23.260;2024-01-30T14:26:43;4.07;;;3.40;;
12784;SDS011;6456;42.680;23.260;2024-01-30T14:29:12;7.40;;;3.70;;
12784;SDS011;6456;42.680;23.260;2024-01-30T14:31:42;7.40;;;3.80;;
12784;SDS011;6456;42.680;23.260;2024-01-30T14:34:09;5.20;;;3.80;;
12784;SDS011;6456;42.680;23.260;2024-01-30T14:36:37;6.90;;;3.63;;
12784;SDS011;6456;42.680;23.260;2024-01-30T14:39:05;4.20;;;3.80;;
12784;SDS011;6456;42.680;23.260;2024-01-30T14:41:32;5.43;;;4.00;;
12784;SDS011;6456;42.680;23.260;2024-01-30T14:43:59;5.93;;;3.87;;
12784;SDS011;6456;42.680;23.260;2024-01-30T14:46:28;13.43;;;5.40;;
12784;SDS011;6456;42.680;23.260;2024-01-30T14:48:57;9.93;;;4.20;;
12784;SDS011;6456;42.680;23.260;2024-01-30T14:51:24;6.53;;;3.80;;
12784;SDS011;6456;42.680;23.260;2024-01-30T14:53:51;5.97;;;3.93;;